sensor_id;sensor_type;location;lat;lon;timestamp;pressure;altitude;pressure_sealevel;temperature;humidity
66945;BME280;53853;51.982;5.928;2023-03-26T00:00:17;100605.03;;;9.15;85.03
66945;BME280;53853;51.982;5.928;2023-03-26T00:02:47;100605.03;;;9.15;84.45
66945;BME280;53853;51.982;5.928;2023-03-26T00:05:17;100606.53;;;9.18;84.54
66945;BME280;53853;51.982;5.928;2023-03-26T00:07:47;100614.63;;;9.26;85.38
66945;BME280;53853;51.982;5.928;2023-03-26T00:10:17;100607.34;;;9.28;85.37
66945;BME280;53853;51.982;5.928;2023-03-26T00:12:47;100608.72;;;9.32;85.35
66945;BME280;53853;51.982;5.928;2023-03-26T00:15:19;100603.97;;;9.36;85.50
66945;BME280;53853;51.982;5.928;2023-03-26T00:17:49;100614.31;;;9.39;85.18
66945;BME280;53853;51.982;5.928;2023-03-26T00:20:20;100612.84;;;9.45;85.66
66945;BME280;53853;51.982;5.928;2023-03-26T00:22:49;100605.84;;;9.43;84.80
66945;BME280;53853;51.982;5.928;2023-03-26T00:25:21;100605.97;;;9.52;85.06
66945;BME280;53853;51.982;5.928;2023-03-26T00:27:52;100603.16;;;9.53;84.90
66945;BME280;53853;51.982;5.928;2023-03-26T00:30:24;100599.06;;;9.59;85.79
66945;BME280;53853;51.982;5.928;2023-03-26T00:32:54;100597.94;;;9.61;85.79
66945;BME280;53853;51.982;5.928;2023-03-26T00:35:24;100590.63;;;9.64;85.36
66945;BME280;53853;51.982;5.928;2023-03-26T00:37:55;100597.47;;;9.66;85.49
66945;BME280;53853;51.982;5.928;2023-03-26T00:40:25;100592.16;;;9.66;85.42
66945;BME280;53853;51.982;5.928;2023-03-26T00:42:55;100583.88;;;9.69;85.62
66945;BME280;53853;51.982;5.928;2023-03-26T00:45:28;100580.22;;;9.70;85.41
66945;BME280;53853;51.982;5.928;2023-03-26T00:47:58;100576.56;;;9.71;85.89
66945;BME280;53853;51.982;5.928;2023-03-26T00:50:28;100579.22;;;9.71;85.68
66945;BME280;53853;51.982;5.928;2023-03-26T00:52:58;100569.56;;;9.70;85.24
66945;BME280;53853;51.982;5.928;2023-03-26T00:55:28;100564.41;;;9.69;85.41
66945;BME280;53853;51.982;5.928;2023-03-26T00:57:58;100565.56;;;9.66;84.84
66945;BME280;53853;51.982;5.928;2023-03-26T01:00:33;100553.75;;;9.69;85.38
66945;BME280;53853;51.982;5.928;2023-03-26T01:03:04;100552.25;;;9.66;85.39
66945;BME280;53853;51.982;5.928;2023-03-26T01:05:46;100553.06;;;9.67;85.60
66945;BME280;53853;51.982;5.928;2023-03-26T01:08:27;100552.56;;;9.63;85.13
66945;BME280;53853;51.982;5.928;2023-03-26T01:11:01;100552.56;;;9.63;85.30
66945;BME280;53853;51.982;5.928;2023-03-26T01:13:36;100545.25;;;9.65;85.68
66945;BME280;53853;51.982;5.928;2023-03-26T01:16:16;100534.59;;;9.65;85.29
66945;BME280;53853;51.982;5.928;2023-03-26T01:18:48;100547.22;;;9.63;85.04
66945;BME280;53853;51.982;5.928;2023-03-26T01:21:20;100536.59;;;9.63;85.17
66945;BME280;53853;51.982;5.928;2023-03-26T01:24:01;100534.59;;;9.65;85.32
66945;BME280;53853;51.982;5.928;2023-03-26T01:29:42;100533.16;;;9.71;85.24
66945;BME280;53853;51.982;5.928;2023-03-26T01:32:23;100530.06;;;9.75;85.55
66945;BME280;53853;51.982;5.928;2023-03-26T01:35:06;100524.41;;;9.78;85.63
66945;BME280;53853;51.982;5.928;2023-03-26T01:37:44;100519.63;;;9.82;85.87
66945;BME280;53853;51.982;5.928;2023-03-26T01:40:25;100521.13;;;9.85;85.60
66945;BME280;53853;51.982;5.928;2023-03-26T01:43:06;100512.84;;;9.88;85.85
66945;BME280;53853;51.982;5.928;2023-03-26T01:45:40;100503.72;;;9.90;85.77
66945;BME280;53853;51.982;5.928;2023-03-26T01:48:11;100503.56;;;9.92;85.46
66945;BME280;53853;51.982;5.928;2023-03-26T01:50:42;100496.25;;;9.94;85.66
66945;BME280;53853;51.982;5.928;2023-03-26T01:53:13;100501.28;;;9.97;86.09
66945;BME280;53853;51.982;5.928;2023-03-26T01:55:53;100496.63;;;9.99;86.62
66945;BME280;53853;51.982;5.928;2023-03-26T01:58:33;100500.97;;;10.00;86.37
66945;BME280;53853;51.982;5.928;2023-03-26T02:01:11;100494.81;;;10.00;85.61
66945;BME280;53853;51.982;5.928;2023-03-26T02:03:49;100493.66;;;10.02;86.10
66945;BME280;53853;51.982;5.928;2023-03-26T02:06:22;100488.03;;;10.05;86.33
66945;BME280;53853;51.982;5.928;2023-03-26T02:08:58;100488.03;;;10.05;86.48
66945;BME280;53853;51.982;5.928;2023-03-26T02:11:33;100475.56;;;10.06;86.09
66945;BME280;53853;51.982;5.928;2023-03-26T02:14:04;100469.69;;;10.02;85.31
66945;BME280;53853;51.982;5.928;2023-03-26T02:16:35;100467.75;;;10.04;85.88
66945;BME280;53853;51.982;5.928;2023-03-26T02:19:05;100464.06;;;10.05;85.96
66945;BME280;53853;51.982;5.928;2023-03-26T02:21:41;100463.09;;;10.06;86.03
66945;BME280;53853;51.982;5.928;2023-03-26T02:24:12;100468.41;;;10.06;86.21
66945;BME280;53853;51.982;5.928;2023-03-26T02:26:45;100467.59;;;10.06;85.80
66945;BME280;53853;51.982;5.928;2023-03-26T02:29:15;100454.28;;;10.06;85.90
66945;BME280;53853;51.982;5.928;2023-03-26T02:31:47;100443.47;;;10.07;85.96
66945;BME280;53853;51.982;5.928;2023-03-26T02:34:17;100454.13;;;10.07;85.76
66945;BME280;53853;51.982;5.928;2023-03-26T02:36:52;100446.13;;;10.07;86.29
66945;BME280;53853;51.982;5.928;2023-03-26T02:39:23;100442.91;;;10.04;85.34
66945;BME280;53853;51.982;5.928;2023-03-26T02:42:07;100443.06;;;10.02;84.63
66945;BME280;53853;51.982;5.928;2023-03-26T02:44:45;100441.13;;;10.04;85.83
66945;BME280;53853;51.982;5.928;2023-03-26T02:47:20;100433.13;;;10.04;85.63
66945;BME280;53853;51.982;5.928;2023-03-26T02:49:53;100435.09;;;10.02;85.27
66945;BME280;53853;51.982;5.928;2023-03-26T02:52:30;100434.78;;;10.05;85.69
66945;BME280;53853;51.982;5.928;2023-03-26T02:55:02;100444.44;;;10.06;85.27
66945;BME280;53853;51.982;5.928;2023-03-26T02:57:36;100436.47;;;10.06;84.67
66945;BME280;53853;51.982;5.928;2023-03-26T03:00:08;100441.78;;;10.06;84.47
66945;BME280;53853;51.982;5.928;2023-03-26T03:02:39;100432.66;;;10.09;85.18
66945;BME280;53853;51.982;5.928;2023-03-26T03:05:31;100429.13;;;10.08;85.13
66945;BME280;53853;51.982;5.928;2023-03-26T03:08:20;100429.28;;;10.07;84.31
66945;BME280;53853;51.982;5.928;2023-03-26T03:11:10;100429.13;;;10.08;85.08
66945;BME280;53853;51.982;5.928;2023-03-26T03:13:53;100422.00;;;10.09;85.69
66945;BME280;53853;51.982;5.928;2023-03-26T03:16:26;100421.16;;;10.08;85.66
66945;BME280;53853;51.982;5.928;2023-03-26T03:18:59;100418.19;;;10.11;86.07
66945;BME280;53853;51.982;5.928;2023-03-26T03:21:39;100417.34;;;10.11;85.63
66945;BME280;53853;51.982;5.928;2023-03-26T03:24:10;100409.06;;;10.14;86.01
66945;BME280;53853;51.982;5.928;2023-03-26T03:26:45;100407.69;;;10.10;84.79
66945;BME280;53853;51.982;5.928;2023-03-26T03:29:38;100396.22;;;10.09;84.63
66945;BME280;53853;51.982;5.928;2023-03-26T03:32:31;100393.56;;;10.09;84.84
66945;BME280;53853;51.982;5.928;2023-03-26T03:35:04;100391.88;;;10.08;84.68
66945;BME280;53853;51.982;5.928;2023-03-26T03:37:35;100391.88;;;10.08;85.00
66945;BME280;53853;51.982;5.928;2023-03-26T03:40:08;100384.75;;;10.09;84.75
66945;BME280;53853;51.982;5.928;2023-03-26T03:42:39;100390.72;;;10.11;85.28
66945;BME280;53853;51.982;5.928;2023-03-26T03:45:13;100391.72;;;10.10;84.66
66945;BME280;53853;51.982;5.928;2023-03-26T03:48:05;100395.91;;;10.12;84.91
66945;BME280;53853;51.982;5.928;2023-03-26T03:50:41;100388.41;;;10.16;85.51
66945;BME280;53853;51.982;5.928;2023-03-26T03:53:26;100387.44;;;10.17;85.76
66945;BME280;53853;51.982;5.928;2023-03-26T03:55:59;100396.56;;;10.14;85.35
66945;BME280;53853;51.982;5.928;2023-03-26T03:58:50;100391.41;;;10.13;84.76
66945;BME280;53853;51.982;5.928;2023-03-26T04:01:31;100388.22;;;10.09;84.31
66945;BME280;53853;51.982;5.928;2023-03-26T04:04:07;100385.41;;;10.11;85.15
66945;BME280;53853;51.982;5.928;2023-03-26T04:06:52;100376.44;;;10.12;85.28
66945;BME280;53853;51.982;5.928;2023-03-26T04:09:24;100375.91;;;10.08;84.29
66945;BME280;53853;51.982;5.928;2023-03-26T04:11:57;100371.59;;;10.07;83.85
66945;BME280;53853;51.982;5.928;2023-03-26T04:14:42;100364.41;;;10.08;83.65
66945;BME280;53853;51.982;5.928;2023-03-26T04:17:17;100358.28;;;10.07;83.41
66945;BME280;53853;51.982;5.928;2023-03-26T04:19:48;100358.28;;;10.07;83.38
66945;BME280;53853;51.982;5.928;2023-03-26T04:22:19;100351.78;;;10.10;83.48
66945;BME280;53853;51.982;5.928;2023-03-26T04:24:59;100348.44;;;10.08;82.88
66945;BME280;53853;51.982;5.928;2023-03-26T04:27:47;100347.63;;;10.07;83.20
66945;BME280;53853;51.982;5.928;2023-03-26T04:30:22;100354.59;;;10.08;83.81
66945;BME280;53853;51.982;5.928;2023-03-26T04:33:08;100347.63;;;10.07;83.22
66945;BME280;53853;51.982;5.928;2023-03-26T04:35:42;100348.28;;;10.09;83.85
66945;BME280;53853;51.982;5.928;2023-03-26T04:38:14;100346.59;;;10.08;82.93
66945;BME280;53853;51.982;5.928;2023-03-26T04:40:48;100340.31;;;10.09;82.98
66945;BME280;53853;51.982;5.928;2023-03-26T04:43:33;100335.13;;;10.08;82.47
66945;BME280;53853;51.982;5.928;2023-03-26T04:46:13;100334.97;;;10.09;84.05
66945;BME280;53853;51.982;5.928;2023-03-26T04:48:53;100329.97;;;10.06;83.44
66945;BME280;53853;51.982;5.928;2023-03-26T04:51:26;100321.97;;;10.06;82.97
66945;BME280;53853;51.982;5.928;2023-03-26T04:54:01;100325.47;;;10.07;82.38
66945;BME280;53853;51.982;5.928;2023-03-26T04:56:49;100319.16;;;10.08;82.38
66945;BME280;53853;51.982;5.928;2023-03-26T04:59:34;100314.66;;;10.08;82.49
66945;BME280;53853;51.982;5.928;2023-03-26T05:02:09;100304.16;;;10.07;82.26
66945;BME280;53853;51.982;5.928;2023-03-26T05:04:53;100306.00;;;10.06;82.01
66945;BME280;53853;51.982;5.928;2023-03-26T05:07:26;100304.16;;;10.07;81.78
66945;BME280;53853;51.982;5.928;2023-03-26T05:09:57;100301.50;;;10.07;81.84
66945;BME280;53853;51.982;5.928;2023-03-26T05:12:38;100299.69;;;10.07;82.05
66945;BME280;53853;51.982;5.928;2023-03-26T05:15:14;100287.53;;;10.05;81.75
66945;BME280;53853;51.982;5.928;2023-03-26T05:18:01;100288.66;;;10.02;81.42
66945;BME280;53853;51.982;5.928;2023-03-26T05:20:42;100294.84;;;10.03;81.79
66945;BME280;53853;51.982;5.928;2023-03-26T05:23:13;100286.72;;;10.04;82.02
66945;BME280;53853;51.982;5.928;2023-03-26T05:25:46;100288.66;;;10.02;81.02
66945;BME280;53853;51.982;5.928;2023-03-26T05:28:20;100280.69;;;10.02;81.78
66945;BME280;53853;51.982;5.928;2023-03-26T05:30:56;100279.03;;;10.01;82.04
66945;BME280;53853;51.982;5.928;2023-03-26T05:33:29;100269.38;;;10.00;81.86
66945;BME280;53853;51.982;5.928;2023-03-26T05:36:07;100270.72;;;9.96;80.92
66945;BME280;53853;51.982;5.928;2023-03-26T05:38:41;100261.19;;;9.93;81.97
66945;BME280;53853;51.982;5.928;2023-03-26T05:41:14;100265.84;;;9.91;81.35
66945;BME280;53853;51.982;5.928;2023-03-26T05:43:47;100259.84;;;9.89;82.30
66945;BME280;53853;51.982;5.928;2023-03-26T05:46:24;100254.50;;;9.89;82.43
66945;BME280;53853;51.982;5.928;2023-03-26T05:48:54;100251.69;;;9.91;82.46
66945;BME280;53853;51.982;5.928;2023-03-26T05:51:27;100256.19;;;9.90;82.60
66945;BME280;53853;51.982;5.928;2023-03-26T05:54:10;100247.38;;;9.90;82.60
66945;BME280;53853;51.982;5.928;2023-03-26T05:56:58;100248.22;;;9.90;82.71
66945;BME280;53853;51.982;5.928;2023-03-26T05:59:47;100235.88;;;9.89;82.46
66945;BME280;53853;51.982;5.928;2023-03-26T06:02:35;100235.06;;;9.89;82.43
66945;BME280;53853;51.982;5.928;2023-03-26T06:05:39;100227.06;;;9.89;82.36
66945;BME280;53853;51.982;5.928;2023-03-26T06:08:18;100222.75;;;9.88;82.40
66945;BME280;53853;51.982;5.928;2023-03-26T06:10:56;100217.41;;;9.88;82.28
66945;BME280;53853;51.982;5.928;2023-03-26T06:13:28;100214.75;;;9.88;82.24
66945;BME280;53853;51.982;5.928;2023-03-26T06:15:58;100206.25;;;9.84;82.22
66945;BME280;53853;51.982;5.928;2023-03-26T06:18:37;100203.75;;;9.83;82.28
66945;BME280;53853;51.982;5.928;2023-03-26T06:21:16;100199.44;;;9.82;82.78
66945;BME280;53853;51.982;5.928;2023-03-26T06:23:59;100199.44;;;9.82;82.69
66945;BME280;53853;51.982;5.928;2023-03-26T06:26:35;100194.09;;;9.82;82.66
66945;BME280;53853;51.982;5.928;2023-03-26T06:29:18;100193.78;;;9.85;82.72
66945;BME280;53853;51.982;5.928;2023-03-26T06:32:18;100183.13;;;9.85;82.84
66945;BME280;53853;51.982;5.928;2023-03-26T06:34:52;100190.47;;;9.83;82.76
66945;BME280;53853;51.982;5.928;2023-03-26T06:37:22;100197.13;;;9.87;83.38
66945;BME280;53853;51.982;5.928;2023-03-26T06:40:00;100194.16;;;9.90;83.46
66945;BME280;53853;51.982;5.928;2023-03-26T06:42:53;100195.63;;;9.92;83.00
66945;BME280;53853;51.982;5.928;2023-03-26T06:45:41;100194.50;;;9.95;82.76
66945;BME280;53853;51.982;5.928;2023-03-26T06:48:31;100190.47;;;9.91;82.29
66945;BME280;53853;51.982;5.928;2023-03-26T06:51:20;100195.13;;;9.89;82.70
66945;BME280;53853;51.982;5.928;2023-03-26T06:54:18;100188.13;;;9.88;82.90
66945;BME280;53853;51.982;5.928;2023-03-26T06:56:56;100191.50;;;9.90;82.97
66945;BME280;53853;51.982;5.928;2023-03-26T06:59:45;100190.31;;;9.92;82.87
66945;BME280;53853;51.982;5.928;2023-03-26T07:02:34;100190.31;;;9.92;82.95
66945;BME280;53853;51.982;5.928;2023-03-26T07:05:22;100191.19;;;9.93;82.74
66945;BME280;53853;51.982;5.928;2023-03-26T07:08:10;100192.16;;;9.92;82.59
66945;BME280;53853;51.982;5.928;2023-03-26T07:10:59;100190.97;;;9.86;82.38
66945;BME280;53853;51.982;5.928;2023-03-26T07:13:54;100181.16;;;9.87;82.86
66945;BME280;53853;51.982;5.928;2023-03-26T07:16:56;100189.97;;;9.87;83.19
66945;BME280;53853;51.982;5.928;2023-03-26T07:19:37;100177.88;;;9.93;83.22
66945;BME280;53853;51.982;5.928;2023-03-26T07:22:08;100177.53;;;9.96;83.22
66945;BME280;53853;51.982;5.928;2023-03-26T07:25:10;100183.53;;;9.98;82.85
66945;BME280;53853;51.982;5.928;2023-03-26T07:27:50;100168.06;;;10.02;83.24
66945;BME280;53853;51.982;5.928;2023-03-26T07:30:56;100180.06;;;10.06;82.82
66945;BME280;53853;51.982;5.928;2023-03-26T07:34:04;100174.91;;;10.04;82.78
66945;BME280;53853;51.982;5.928;2023-03-26T07:36:50;100177.03;;;10.01;82.47
66945;BME280;53853;51.982;5.928;2023-03-26T07:39:52;100179.50;;;9.94;82.19
66945;BME280;53853;51.982;5.928;2023-03-26T07:42:52;100171.19;;;9.89;82.51
66945;BME280;53853;51.982;5.928;2023-03-26T07:45:47;100166.38;;;9.92;83.00
66945;BME280;53853;51.982;5.928;2023-03-26T07:48:42;100170.53;;;9.95;83.06
66945;BME280;53853;51.982;5.928;2023-03-26T07:51:28;100156.91;;;9.98;83.36
66945;BME280;53853;51.982;5.928;2023-03-26T07:54:28;100156.25;;;10.04;83.79
66945;BME280;53853;51.982;5.928;2023-03-26T07:57:34;100154.28;;;10.14;84.46
66945;BME280;53853;51.982;5.928;2023-03-26T08:00:38;100147.47;;;10.20;84.39
66945;BME280;53853;51.982;5.928;2023-03-26T08:03:35;100146.97;;;10.25;83.76
66945;BME280;53853;51.982;5.928;2023-03-26T08:06:34;100150.31;;;10.27;83.60
66945;BME280;53853;51.982;5.928;2023-03-26T08:09:28;100146.97;;;10.25;82.94
66945;BME280;53853;51.982;5.928;2023-03-26T08:12:26;100143.28;;;10.26;83.25
66945;BME280;53853;51.982;5.928;2023-03-26T08:15:02;100147.63;;;10.27;83.11
66945;BME280;53853;51.982;5.928;2023-03-26T08:17:37;100149.97;;;10.30;83.29
66945;BME280;53853;51.982;5.928;2023-03-26T08:20:25;100142.63;;;10.32;83.55
66945;BME280;53853;51.982;5.928;2023-03-26T08:23:01;100149.69;;;10.33;83.65
66945;BME280;53853;51.982;5.928;2023-03-26T08:25:42;100149.69;;;10.33;83.43
66945;BME280;53853;51.982;5.928;2023-03-26T08:28:26;100143.16;;;10.36;83.17
66945;BME280;53853;51.982;5.928;2023-03-26T08:30:59;100143.84;;;10.38;83.24
66945;BME280;53853;51.982;5.928;2023-03-26T08:33:30;100139.69;;;10.35;82.63
66945;BME280;53853;51.982;5.928;2023-03-26T08:36:05;100150.00;;;10.38;83.12
66945;BME280;53853;51.982;5.928;2023-03-26T08:38:35;100147.00;;;10.41;82.74
66945;BME280;53853;51.982;5.928;2023-03-26T08:41:26;100152.34;;;10.41;82.50
66945;BME280;53853;51.982;5.928;2023-03-26T08:44:34;100148.69;;;10.42;82.51
66945;BME280;53853;51.982;5.928;2023-03-26T08:47:47;100141.19;;;10.46;82.34
66945;BME280;53853;51.982;5.928;2023-03-26T08:53:46;100141.34;;;10.52;82.17
66945;BME280;53853;51.982;5.928;2023-03-26T08:56:25;100144.34;;;10.49;82.20
66945;BME280;53853;51.982;5.928;2023-03-26T09:02:15;100146.69;;;10.44;82.12
66945;BME280;53853;51.982;5.928;2023-03-26T09:14:29;100142.31;;;10.27;82.56
66945;BME280;53853;51.982;5.928;2023-03-26T09:20:49;100151.44;;;10.24;82.42
66945;BME280;53853;51.982;5.928;2023-03-26T09:23:58;100140.78;;;10.24;82.47
66945;BME280;53853;51.982;5.928;2023-03-26T09:26:45;100152.31;;;10.25;82.70
66945;BME280;53853;51.982;5.928;2023-03-26T09:29:52;100145.31;;;10.24;82.39
66945;BME280;53853;51.982;5.928;2023-03-26T09:35:50;100141.63;;;10.16;83.01
66945;BME280;53853;51.982;5.928;2023-03-26T09:38:36;100141.81;;;10.15;82.84
66945;BME280;53853;51.982;5.928;2023-03-26T09:41:14;100149.59;;;10.16;83.02
66945;BME280;53853;51.982;5.928;2023-03-26T09:46:49;100142.31;;;10.10;83.13
66945;BME280;53853;51.982;5.928;2023-03-26T09:49:29;100147.94;;;10.07;83.03
66945;BME280;53853;51.982;5.928;2023-03-26T09:52:20;100146.44;;;10.13;83.73
66945;BME280;53853;51.982;5.928;2023-03-26T10:01:07;100148.44;;;10.19;83.94
66945;BME280;53853;51.982;5.928;2023-03-26T10:03:48;100151.13;;;10.19;83.92
66945;BME280;53853;51.982;5.928;2023-03-26T10:06:46;100147.31;;;10.22;84.04
66945;BME280;53853;51.982;5.928;2023-03-26T10:09:39;100156.63;;;10.26;84.30
66945;BME280;53853;51.982;5.928;2023-03-26T10:12:21;100154.47;;;10.29;84.47
66945;BME280;53853;51.982;5.928;2023-03-26T10:15:00;100147.00;;;10.33;84.33
66945;BME280;53853;51.982;5.928;2023-03-26T10:17:45;100153.81;;;10.36;84.20
66945;BME280;53853;51.982;5.928;2023-03-26T10:20:36;100147.00;;;10.41;84.59
66945;BME280;53853;51.982;5.928;2023-03-26T10:23:27;100140.88;;;10.41;83.98
66945;BME280;53853;51.982;5.928;2023-03-26T10:26:22;100144.69;;;10.38;83.52
66945;BME280;53853;51.982;5.928;2023-03-26T10:32:18;100150.69;;;10.57;84.62
66945;BME280;53853;51.982;5.928;2023-03-26T10:35:05;100150.69;;;10.65;84.76
66945;BME280;53853;51.982;5.928;2023-03-26T10:37:48;100150.66;;;10.73;84.89
66945;BME280;53853;51.982;5.928;2023-03-26T10:40:22;100148.16;;;10.88;85.49
66945;BME280;53853;51.982;5.928;2023-03-26T10:46:13;100153.97;;;11.00;84.72
66945;BME280;53853;51.982;5.928;2023-03-26T10:51:58;100154.44;;;11.03;84.78
66945;BME280;53853;51.982;5.928;2023-03-26T10:54:40;100155.31;;;11.04;84.35
66945;BME280;53853;51.982;5.928;2023-03-26T10:57:21;100153.47;;;11.04;84.29
66945;BME280;53853;51.982;5.928;2023-03-26T10:59:55;100166.13;;;11.02;84.24
66945;BME280;53853;51.982;5.928;2023-03-26T11:02:28;100159.94;;;11.02;83.73
66945;BME280;53853;51.982;5.928;2023-03-26T11:05:17;100168.47;;;10.97;83.78
66945;BME280;53853;51.982;5.928;2023-03-26T11:08:00;100162.00;;;10.83;82.05
66945;BME280;53853;51.982;5.928;2023-03-26T11:10:39;100169.16;;;10.75;82.65
66945;BME280;53853;51.982;5.928;2023-03-26T11:13:18;100162.16;;;10.65;82.59
66945;BME280;53853;51.982;5.928;2023-03-26T11:15:57;100170.66;;;10.61;83.19
66945;BME280;53853;51.982;5.928;2023-03-26T11:18:34;100161.34;;;10.57;83.89
66945;BME280;53853;51.982;5.928;2023-03-26T11:21:10;100170.66;;;10.52;83.95
66945;BME280;53853;51.982;5.928;2023-03-26T11:23:58;100173.00;;;10.47;84.01
66945;BME280;53853;51.982;5.928;2023-03-26T11:26:39;100178.16;;;10.41;83.31
66945;BME280;53853;51.982;5.928;2023-03-26T11:29:24;100184.97;;;10.35;84.10
66945;BME280;53853;51.982;5.928;2023-03-26T11:32:02;100174.59;;;10.24;84.12
66945;BME280;53853;51.982;5.928;2023-03-26T11:34:37;100180.56;;;10.18;84.69
66945;BME280;53853;51.982;5.928;2023-03-26T11:37:14;100185.41;;;10.14;85.36
66945;BME280;53853;51.982;5.928;2023-03-26T11:39:53;100184.56;;;10.13;85.44
66945;BME280;53853;51.982;5.928;2023-03-26T11:42:25;100181.75;;;10.15;85.44
66945;BME280;53853;51.982;5.928;2023-03-26T11:44:59;100190.41;;;10.17;86.13
66945;BME280;53853;51.982;5.928;2023-03-26T11:47:35;100192.72;;;10.20;86.46
66945;BME280;53853;51.982;5.928;2023-03-26T11:50:13;100186.56;;;10.20;86.71
66945;BME280;53853;51.982;5.928;2023-03-26T11:52:44;100196.72;;;10.16;86.05
66945;BME280;53853;51.982;5.928;2023-03-26T11:55:16;100195.88;;;10.15;86.53
66945;BME280;53853;51.982;5.928;2023-03-26T11:57:50;100192.03;;;10.10;86.52
66945;BME280;53853;51.982;5.928;2023-03-26T12:00:22;100192.34;;;10.07;86.80
66945;BME280;53853;51.982;5.928;2023-03-26T12:02:56;100193.84;;;10.01;85.88
66945;BME280;53853;51.982;5.928;2023-03-26T12:05:31;100199.00;;;9.94;86.13
66945;BME280;53853;51.982;5.928;2023-03-26T12:08:19;100196.28;;;9.86;84.38
66945;BME280;53853;51.982;5.928;2023-03-26T12:11:03;100205.59;;;9.82;85.15
66945;BME280;53853;51.982;5.928;2023-03-26T12:13:38;100200.75;;;9.77;84.34
66945;BME280;53853;51.982;5.928;2023-03-26T12:16:12;100205.19;;;9.69;84.17
66945;BME280;53853;51.982;5.928;2023-03-26T12:18:44;100207.63;;;9.54;83.08
66945;BME280;53853;51.982;5.928;2023-03-26T12:21:16;100207.75;;;9.44;83.01
66945;BME280;53853;51.982;5.928;2023-03-26T12:23:56;100214.06;;;9.43;83.91
66945;BME280;53853;51.982;5.928;2023-03-26T12:26:36;100216.19;;;9.39;84.13
66945;BME280;53853;51.982;5.928;2023-03-26T12:29:14;100214.00;;;9.35;84.21
66945;BME280;53853;51.982;5.928;2023-03-26T12:31:51;100211.19;;;9.36;84.59
66945;BME280;53853;51.982;5.928;2023-03-26T12:34:27;100220.34;;;9.42;83.74
66945;BME280;53853;51.982;5.928;2023-03-26T12:37:01;100222.19;;;9.41;82.99
66945;BME280;53853;51.982;5.928;2023-03-26T12:39:34;100224.69;;;9.43;81.98
66945;BME280;53853;51.982;5.928;2023-03-26T12:42:25;100224.84;;;9.41;82.13
66945;BME280;53853;51.982;5.928;2023-03-26T12:44:56;100222.66;;;9.37;82.28
66945;BME280;53853;51.982;5.928;2023-03-26T12:47:29;100233.66;;;9.42;82.96
66945;BME280;53853;51.982;5.928;2023-03-26T12:50:00;100230.84;;;9.43;82.48
66945;BME280;53853;51.982;5.928;2023-03-26T12:52:41;100231.69;;;9.44;82.61
66945;BME280;53853;51.982;5.928;2023-03-26T12:55:25;100232.03;;;9.49;82.91
66945;BME280;53853;51.982;5.928;2023-03-26T12:58:16;100241.00;;;9.48;82.49
66945;BME280;53853;51.982;5.928;2023-03-26T13:00:55;100234.97;;;9.38;80.49
66945;BME280;53853;51.982;5.928;2023-03-26T13:03:50;100242.50;;;9.24;79.61
66945;BME280;53853;51.982;5.928;2023-03-26T13:06:32;100241.03;;;9.22;81.05
66945;BME280;53853;51.982;5.928;2023-03-26T13:09:21;100242.31;;;9.18;81.17
66945;BME280;53853;51.982;5.928;2023-03-26T13:12:03;100247.13;;;9.14;81.00
66945;BME280;53853;51.982;5.928;2023-03-26T13:14:52;100253.72;;;9.10;81.07
66945;BME280;53853;51.982;5.928;2023-03-26T13:17:27;100246.19;;;9.05;80.77
66945;BME280;53853;51.982;5.928;2023-03-26T13:20:02;100245.84;;;9.00;80.70
66945;BME280;53853;51.982;5.928;2023-03-26T13:22:45;100251.16;;;9.00;80.42
66945;BME280;53853;51.982;5.928;2023-03-26T13:25:24;100253.28;;;8.97;80.47
66945;BME280;53853;51.982;5.928;2023-03-26T13:28:05;100261.13;;;8.98;81.09
66945;BME280;53853;51.982;5.928;2023-03-26T13:30:47;100253.44;;;8.95;80.46
66945;BME280;53853;51.982;5.928;2023-03-26T13:33:34;100253.28;;;8.97;81.53
66945;BME280;53853;51.982;5.928;2023-03-26T13:36:12;100247.81;;;8.98;80.81
66945;BME280;53853;51.982;5.928;2023-03-26T13:38:55;100248.19;;;9.03;81.52
66945;BME280;53853;51.982;5.928;2023-03-26T13:41:39;100246.19;;;9.05;80.12
66945;BME280;53853;51.982;5.928;2023-03-26T13:44:21;100258.22;;;9.10;80.77
66945;BME280;53853;51.982;5.928;2023-03-26T13:47:03;100264.03;;;9.13;80.87
66945;BME280;53853;51.982;5.928;2023-03-26T13:49:39;100255.75;;;9.16;79.45
66945;BME280;53853;51.982;5.928;2023-03-26T13:52:13;100267.47;;;9.23;80.21
66945;BME280;53853;51.982;5.928;2023-03-26T13:54:51;100272.66;;;9.33;80.77
66945;BME280;53853;51.982;5.928;2023-03-26T13:57:24;100268.56;;;9.39;80.82
66945;BME280;53853;51.982;5.928;2023-03-26T14:00:01;100271.78;;;9.51;80.41
66945;BME280;53853;51.982;5.928;2023-03-26T14:02:43;100268.84;;;9.62;78.00
66945;BME280;53853;51.982;5.928;2023-03-26T14:05:19;100269.75;;;9.71;79.09
66945;BME280;53853;51.982;5.928;2023-03-26T14:07:53;100268.78;;;9.80;78.68
66945;BME280;53853;51.982;5.928;2023-03-26T14:10:28;100274.81;;;9.90;79.32
66945;BME280;53853;51.982;5.928;2023-03-26T14:13:03;100281.66;;;9.93;76.04
66945;BME280;53853;51.982;5.928;2023-03-26T14:15:41;100285.66;;;9.97;76.58
66945;BME280;53853;51.982;5.928;2023-03-26T14:18:26;100292.50;;;10.00;76.59
66945;BME280;53853;51.982;5.928;2023-03-26T14:21:24;100300.34;;;10.01;75.01
66945;BME280;53853;51.982;5.928;2023-03-26T14:24:22;100294.69;;;10.04;75.04
66945;BME280;53853;51.982;5.928;2023-03-26T14:27:33;100301.50;;;10.07;74.95
66945;BME280;53853;51.982;5.928;2023-03-26T14:30:28;100301.50;;;10.07;76.30
66945;BME280;53853;51.982;5.928;2023-03-26T14:33:18;100306.16;;;10.05;74.49
66945;BME280;53853;51.982;5.928;2023-03-26T14:35:59;100308.16;;;10.03;73.38
66945;BME280;53853;51.982;5.928;2023-03-26T14:41:45;100317.59;;;9.97;72.51
66945;BME280;53853;51.982;5.928;2023-03-26T14:44:42;100328.41;;;9.95;72.65
66945;BME280;53853;51.982;5.928;2023-03-26T14:47:17;100330.09;;;9.96;68.96
66945;BME280;53853;51.982;5.928;2023-03-26T14:52:56;100336.25;;;9.97;71.45